sensor_id;sensor_type;location;lat;lon;timestamp;temperature;humidity
4828;DHT22;2428;48.732;9.148;2022-11-20T00:00:55;5.70;99.90
4828;DHT22;2428;48.732;9.148;2022-11-20T00:03:21;5.70;99.90
4828;DHT22;2428;48.732;9.148;2022-11-20T00:05:47;5.60;99.90
4828;DHT22;2428;48.732;9.148;2022-11-20T00:08:12;5.60;99.90
4828;DHT22;2428;48.732;9.148;2022-11-20T00:10:39;5.60;99.90
4828;DHT22;2428;48.732;9.148;2022-11-20T00:13:05;5.60;99.90
4828;DHT22;2428;48.732;9.148;2022-11-20T00:15:31;5.60;99.90
4828;DHT22;2428;48.732;9.148;2022-11-20T00:17:57;5.60;99.90
4828;DHT22;2428;48.732;9.148;2022-11-20T00:20:23;5.60;99.90
4828;DHT22;2428;48.732;9.148;2022-11-20T00:22:49;5.60;99.90
4828;DHT22;2428;48.732;9.148;2022-11-20T00:25:15;5.60;99.90
4828;DHT22;2428;48.732;9.148;2022-11-20T00:27:41;5.60;99.90
4828;DHT22;2428;48.732;9.148;2022-11-20T00:30:07;5.60;99.90
4828;DHT22;2428;48.732;9.148;2022-11-20T00:32:32;5.60;99.90
4828;DHT22;2428;48.732;9.148;2022-11-20T00:34:58;5.60;99.90
4828;DHT22;2428;48.732;9.148;2022-11-20T00:37:23;5.60;99.90
4828;DHT22;2428;48.732;9.148;2022-11-20T00:39:49;5.60;99.90
4828;DHT22;2428;48.732;9.148;2022-11-20T00:42:15;5.60;99.90
4828;DHT22;2428;48.732;9.148;2022-11-20T00:44:40;5.60;99.90
4828;DHT22;2428;48.732;9.148;2022-11-20T00:47:06;5.60;99.90
4828;DHT22;2428;48.732;9.148;2022-11-20T00:49:31;5.50;99.90
4828;DHT22;2428;48.732;9.148;2022-11-20T00:51:57;5.60;99.90
4828;DHT22;2428;48.732;9.148;2022-11-20T00:54:22;5.50;99.90
4828;DHT22;2428;48.732;9.148;2022-11-20T00:56:48;5.50;99.90
4828;DHT22;2428;48.732;9.148;2022-11-20T00:59:13;5.50;99.90
4828;DHT22;2428;48.732;9.148;2022-11-20T01:01:39;5.50;99.90
4828;DHT22;2428;48.732;9.148;2022-11-20T01:04:05;5.50;99.90
4828;DHT22;2428;48.732;9.148;2022-11-20T01:06:36;5.60;99.90
4828;DHT22;2428;48.732;9.148;2022-11-20T01:09:09;5.60;99.90
4828;DHT22;2428;48.732;9.148;2022-11-20T01:11:37;5.60;99.90
4828;DHT22;2428;48.732;9.148;2022-11-20T01:14:06;5.60;99.90
4828;DHT22;2428;48.732;9.148;2022-11-20T01:16:34;5.60;99.90
4828;DHT22;2428;48.732;9.148;2022-11-20T01:19:02;5.60;99.90
4828;DHT22;2428;48.732;9.148;2022-11-20T01:21:30;5.50;99.90
4828;DHT22;2428;48.732;9.148;2022-11-20T01:23:56;5.40;99.90
4828;DHT22;2428;48.732;9.148;2022-11-20T01:26:25;5.40;99.90
4828;DHT22;2428;48.732;9.148;2022-11-20T01:28:51;5.50;99.90
4828;DHT22;2428;48.732;9.148;2022-11-20T01:33:52;5.40;99.90
4828;DHT22;2428;48.732;9.148;2022-11-20T01:36:19;5.40;99.90
4828;DHT22;2428;48.732;9.148;2022-11-20T01:38:45;5.30;99.90
4828;DHT22;2428;48.732;9.148;2022-11-20T01:41:11;5.30;99.90
4828;DHT22;2428;48.732;9.148;2022-11-20T01:43:59;5.30;99.90
4828;DHT22;2428;48.732;9.148;2022-11-20T01:46:24;5.20;99.90
4828;DHT22;2428;48.732;9.148;2022-11-20T01:49:11;5.20;99.90
4828;DHT22;2428;48.732;9.148;2022-11-20T01:51:54;5.10;99.90
4828;DHT22;2428;48.732;9.148;2022-11-20T01:54:36;5.00;99.90
4828;DHT22;2428;48.732;9.148;2022-11-20T01:57:04;5.00;99.90
4828;DHT22;2428;48.732;9.148;2022-11-20T01:59:32;4.90;99.90
4828;DHT22;2428;48.732;9.148;2022-11-20T02:01:58;4.90;99.90
4828;DHT22;2428;48.732;9.148;2022-11-20T02:04:24;4.80;99.90
4828;DHT22;2428;48.732;9.148;2022-11-20T02:06:59;4.80;99.90
4828;DHT22;2428;48.732;9.148;2022-11-20T02:09:25;4.80;99.90
4828;DHT22;2428;48.732;9.148;2022-11-20T02:11:52;4.90;99.90
4828;DHT22;2428;48.732;9.148;2022-11-20T02:14:18;4.90;99.90
4828;DHT22;2428;48.732;9.148;2022-11-20T02:16:46;4.90;99.90
4828;DHT22;2428;48.732;9.148;2022-11-20T02:19:30;4.90;99.90
4828;DHT22;2428;48.732;9.148;2022-11-20T02:22:17;4.90;99.90
4828;DHT22;2428;48.732;9.148;2022-11-20T02:24:45;4.90;99.90
4828;DHT22;2428;48.732;9.148;2022-11-20T02:27:13;4.90;99.90
4828;DHT22;2428;48.732;9.148;2022-11-20T02:29:46;4.90;99.90
4828;DHT22;2428;48.732;9.148;2022-11-20T02:32:24;4.90;99.90
4828;DHT22;2428;48.732;9.148;2022-11-20T02:34:50;4.90;99.90
4828;DHT22;2428;48.732;9.148;2022-11-20T02:37:16;4.90;99.90
4828;DHT22;2428;48.732;9.148;2022-11-20T02:39:45;4.90;99.90
4828;DHT22;2428;48.732;9.148;2022-11-20T02:42:11;4.90;99.90
4828;DHT22;2428;48.732;9.148;2022-11-20T02:44:36;4.80;99.90
4828;DHT22;2428;48.732;9.148;2022-11-20T02:47:02;4.80;99.90
4828;DHT22;2428;48.732;9.148;2022-11-20T02:49:28;4.80;99.90
4828;DHT22;2428;48.732;9.148;2022-11-20T02:51:54;4.90;99.90
4828;DHT22;2428;48.732;9.148;2022-11-20T02:54:19;4.90;99.90
4828;DHT22;2428;48.732;9.148;2022-11-20T02:56:45;4.90;99.90
4828;DHT22;2428;48.732;9.148;2022-11-20T02:59:10;4.90;99.90
4828;DHT22;2428;48.732;9.148;2022-11-20T03:01:36;4.90;99.90
4828;DHT22;2428;48.732;9.148;2022-11-20T03:04:02;4.90;99.90
4828;DHT22;2428;48.732;9.148;2022-11-20T03:06:27;4.90;99.90
4828;DHT22;2428;48.732;9.148;2022-11-20T03:08:53;5.00;99.90
4828;DHT22;2428;48.732;9.148;2022-11-20T03:11:19;5.00;99.90
4828;DHT22;2428;48.732;9.148;2022-11-20T03:13:45;4.90;99.90
4828;DHT22;2428;48.732;9.148;2022-11-20T03:16:22;4.90;99.90
4828;DHT22;2428;48.732;9.148;2022-11-20T03:18:48;4.90;99.90
4828;DHT22;2428;48.732;9.148;2022-11-20T03:21:15;5.00;99.90
4828;DHT22;2428;48.732;9.148;2022-11-20T03:23:42;5.00;99.90
4828;DHT22;2428;48.732;9.148;2022-11-20T03:26:19;5.00;99.90
4828;DHT22;2428;48.732;9.148;2022-11-20T03:28:59;5.00;99.90
4828;DHT22;2428;48.732;9.148;2022-11-20T03:31:26;5.00;99.90
4828;DHT22;2428;48.732;9.148;2022-11-20T03:33:52;4.90;99.90
4828;DHT22;2428;48.732;9.148;2022-11-20T03:36:19;4.90;99.90
4828;DHT22;2428;48.732;9.148;2022-11-20T03:38:45;4.90;99.90
4828;DHT22;2428;48.732;9.148;2022-11-20T03:41:18;4.90;99.90
4828;DHT22;2428;48.732;9.148;2022-11-20T03:46:20;4.80;99.90
4828;DHT22;2428;48.732;9.148;2022-11-20T03:48:46;4.80;99.90
4828;DHT22;2428;48.732;9.148;2022-11-20T03:51:16;4.70;99.90
4828;DHT22;2428;48.732;9.148;2022-11-20T03:53:44;4.70;99.90
4828;DHT22;2428;48.732;9.148;2022-11-20T03:56:10;4.70;99.90
4828;DHT22;2428;48.732;9.148;2022-11-20T03:58:39;4.60;99.90
4828;DHT22;2428;48.732;9.148;2022-11-20T04:01:10;4.60;99.90
4828;DHT22;2428;48.732;9.148;2022-11-20T04:03:37;4.60;99.90
4828;DHT22;2428;48.732;9.148;2022-11-20T04:06:09;4.60;99.90
4828;DHT22;2428;48.732;9.148;2022-11-20T04:08:35;4.60;99.90
4828;DHT22;2428;48.732;9.148;2022-11-20T04:13:38;4.60;99.90
4828;DHT22;2428;48.732;9.148;2022-11-20T04:16:06;4.60;99.90
4828;DHT22;2428;48.732;9.148;2022-11-20T04:18:32;4.60;99.90
4828;DHT22;2428;48.732;9.148;2022-11-20T04:20:58;4.70;99.90
4828;DHT22;2428;48.732;9.148;2022-11-20T04:23:24;4.70;99.90
4828;DHT22;2428;48.732;9.148;2022-11-20T04:25:50;4.60;99.90
4828;DHT22;2428;48.732;9.148;2022-11-20T04:28:16;4.60;99.90
4828;DHT22;2428;48.732;9.148;2022-11-20T04:30:42;4.60;99.90
4828;DHT22;2428;48.732;9.148;2022-11-20T04:33:07;4.60;99.90
4828;DHT22;2428;48.732;9.148;2022-11-20T04:35:36;4.60;99.90
4828;DHT22;2428;48.732;9.148;2022-11-20T04:38:03;4.60;99.90
4828;DHT22;2428;48.732;9.148;2022-11-20T04:40:29;4.60;99.90
4828;DHT22;2428;48.732;9.148;2022-11-20T04:42:55;4.50;99.90
4828;DHT22;2428;48.732;9.148;2022-11-20T04:45:22;4.50;99.90
4828;DHT22;2428;48.732;9.148;2022-11-20T04:47:49;4.50;99.90
4828;DHT22;2428;48.732;9.148;2022-11-20T04:50:14;4.50;99.90
4828;DHT22;2428;48.732;9.148;2022-11-20T04:52:40;4.50;99.90
4828;DHT22;2428;48.732;9.148;2022-11-20T04:55:06;4.60;99.90
4828;DHT22;2428;48.732;9.148;2022-11-20T04:57:31;4.60;99.90
4828;DHT22;2428;48.732;9.148;2022-11-20T04:59:57;4.60;99.90
4828;DHT22;2428;48.732;9.148;2022-11-20T05:02:23;4.60;99.90
4828;DHT22;2428;48.732;9.148;2022-11-20T05:04:48;4.60;99.90
4828;DHT22;2428;48.732;9.148;2022-11-20T05:07:14;4.70;99.90
4828;DHT22;2428;48.732;9.148;2022-11-20T05:09:40;4.70;99.90
4828;DHT22;2428;48.732;9.148;2022-11-20T05:12:08;4.70;99.90
4828;DHT22;2428;48.732;9.148;2022-11-20T05:14:34;4.80;99.90
4828;DHT22;2428;48.732;9.148;2022-11-20T05:17:00;4.80;99.90
4828;DHT22;2428;48.732;9.148;2022-11-20T05:19:25;4.80;99.90
4828;DHT22;2428;48.732;9.148;2022-11-20T05:21:51;4.80;99.90
4828;DHT22;2428;48.732;9.148;2022-11-20T05:24:16;4.80;99.90
4828;DHT22;2428;48.732;9.148;2022-11-20T05:26:42;4.80;99.90
4828;DHT22;2428;48.732;9.148;2022-11-20T05:29:12;4.80;99.90
4828;DHT22;2428;48.732;9.148;2022-11-20T05:31:40;4.90;99.90
4828;DHT22;2428;48.732;9.148;2022-11-20T05:34:06;4.90;99.90
4828;DHT22;2428;48.732;9.148;2022-11-20T05:36:32;5.00;99.90
4828;DHT22;2428;48.732;9.148;2022-11-20T05:38:57;5.10;99.90
4828;DHT22;2428;48.732;9.148;2022-11-20T05:41:23;5.10;99.90
4828;DHT22;2428;48.732;9.148;2022-11-20T05:43:50;5.20;99.90
4828;DHT22;2428;48.732;9.148;2022-11-20T05:46:19;5.20;99.90
4828;DHT22;2428;48.732;9.148;2022-11-20T05:48:45;5.20;99.90
4828;DHT22;2428;48.732;9.148;2022-11-20T05:51:14;5.20;99.90
4828;DHT22;2428;48.732;9.148;2022-11-20T05:53:40;5.30;99.90
4828;DHT22;2428;48.732;9.148;2022-11-20T05:56:12;5.20;99.90
4828;DHT22;2428;48.732;9.148;2022-11-20T05:58:38;5.20;99.90
4828;DHT22;2428;48.732;9.148;2022-11-20T06:03:40;5.30;99.90
4828;DHT22;2428;48.732;9.148;2022-11-20T06:06:07;5.30;99.90
4828;DHT22;2428;48.732;9.148;2022-11-20T06:08:34;5.30;99.90
4828;DHT22;2428;48.732;9.148;2022-11-20T06:11:04;5.30;99.90
4828;DHT22;2428;48.732;9.148;2022-11-20T06:13:30;5.40;99.90
4828;DHT22;2428;48.732;9.148;2022-11-20T06:15:56;5.40;99.90
4828;DHT22;2428;48.732;9.148;2022-11-20T06:18:21;5.40;99.90
4828;DHT22;2428;48.732;9.148;2022-11-20T06:20:47;5.40;99.90
4828;DHT22;2428;48.732;9.148;2022-11-20T06:23:13;5.40;99.90
4828;DHT22;2428;48.732;9.148;2022-11-20T06:25:42;5.40;99.90
4828;DHT22;2428;48.732;9.148;2022-11-20T06:28:08;5.40;99.90
4828;DHT22;2428;48.732;9.148;2022-11-20T06:30:34;5.40;99.90
4828;DHT22;2428;48.732;9.148;2022-11-20T06:33:00;5.40;99.90
4828;DHT22;2428;48.732;9.148;2022-11-20T06:35:26;5.30;99.90
4828;DHT22;2428;48.732;9.148;2022-11-20T06:37:52;5.40;99.90
4828;DHT22;2428;48.732;9.148;2022-11-20T06:40:17;5.30;99.90
4828;DHT22;2428;48.732;9.148;2022-11-20T06:42:43;5.30;99.90
4828;DHT22;2428;48.732;9.148;2022-11-20T06:45:09;5.30;99.90
4828;DHT22;2428;48.732;9.148;2022-11-20T06:47:35;5.30;99.90
4828;DHT22;2428;48.732;9.148;2022-11-20T06:50:00;5.30;99.90
4828;DHT22;2428;48.732;9.148;2022-11-20T06:52:26;5.30;99.90
4828;DHT22;2428;48.732;9.148;2022-11-20T06:54:52;5.30;99.90
4828;DHT22;2428;48.732;9.148;2022-11-20T06:57:17;5.30;99.90
4828;DHT22;2428;48.732;9.148;2022-11-20T06:59:43;5.30;99.90
4828;DHT22;2428;48.732;9.148;2022-11-20T07:02:10;5.30;99.90
4828;DHT22;2428;48.732;9.148;2022-11-20T07:04:37;5.30;99.90
4828;DHT22;2428;48.732;9.148;2022-11-20T07:07:03;5.30;99.90
4828;DHT22;2428;48.732;9.148;2022-11-20T07:09:28;5.30;99.90
4828;DHT22;2428;48.732;9.148;2022-11-20T07:11:54;5.30;99.90
4828;DHT22;2428;48.732;9.148;2022-11-20T07:14:19;5.30;99.90
4828;DHT22;2428;48.732;9.148;2022-11-20T07:16:45;5.30;99.90
4828;DHT22;2428;48.732;9.148;2022-11-20T07:19:10;5.30;99.90
4828;DHT22;2428;48.732;9.148;2022-11-20T07:21:36;5.30;99.90
4828;DHT22;2428;48.732;9.148;2022-11-20T07:24:02;5.40;99.90
4828;DHT22;2428;48.732;9.148;2022-11-20T07:26:27;5.40;99.90
4828;DHT22;2428;48.732;9.148;2022-11-20T07:28:53;5.40;99.90
4828;DHT22;2428;48.732;9.148;2022-11-20T07:31:18;5.40;99.90
4828;DHT22;2428;48.732;9.148;2022-11-20T07:33:44;5.40;99.90
4828;DHT22;2428;48.732;9.148;2022-11-20T07:36:09;5.30;99.90
4828;DHT22;2428;48.732;9.148;2022-11-20T07:38:37;5.40;99.90
4828;DHT22;2428;48.732;9.148;2022-11-20T07:41:02;5.40;99.90
4828;DHT22;2428;48.732;9.148;2022-11-20T07:43:28;5.40;99.90
4828;DHT22;2428;48.732;9.148;2022-11-20T07:45:57;5.40;99.90
4828;DHT22;2428;48.732;9.148;2022-11-20T07:48:24;5.50;99.90
4828;DHT22;2428;48.732;9.148;2022-11-20T07:50:53;5.50;99.90
4828;DHT22;2428;48.732;9.148;2022-11-20T07:53:20;5.50;99.90
4828;DHT22;2428;48.732;9.148;2022-11-20T07:55:47;5.50;99.90
4828;DHT22;2428;48.732;9.148;2022-11-20T07:58:12;5.50;99.90
4828;DHT22;2428;48.732;9.148;2022-11-20T08:00:39;5.50;99.90
4828;DHT22;2428;48.732;9.148;2022-11-20T08:03:05;5.60;99.90
4828;DHT22;2428;48.732;9.148;2022-11-20T08:05:31;5.60;99.90
4828;DHT22;2428;48.732;9.148;2022-11-20T08:07:57;5.60;99.90
4828;DHT22;2428;48.732;9.148;2022-11-20T08:10:22;5.60;99.90
4828;DHT22;2428;48.732;9.148;2022-11-20T08:12:50;5.70;99.90
4828;DHT22;2428;48.732;9.148;2022-11-20T08:15:36;5.70;99.90
4828;DHT22;2428;48.732;9.148;2022-11-20T08:18:10;5.70;99.90
4828;DHT22;2428;48.732;9.148;2022-11-20T08:20:38;5.70;99.90
4828;DHT22;2428;48.732;9.148;2022-11-20T08:23:06;5.80;99.90
4828;DHT22;2428;48.732;9.148;2022-11-20T08:25:33;5.80;99.90
4828;DHT22;2428;48.732;9.148;2022-11-20T08:28:00;5.80;99.90
4828;DHT22;2428;48.732;9.148;2022-11-20T08:30:26;5.80;99.90
4828;DHT22;2428;48.732;9.148;2022-11-20T08:32:53;5.90;99.90
4828;DHT22;2428;48.732;9.148;2022-11-20T08:35:19;6.00;99.90
4828;DHT22;2428;48.732;9.148;2022-11-20T08:37:49;5.90;99.90
4828;DHT22;2428;48.732;9.148;2022-11-20T08:40:15;5.90;99.90
4828;DHT22;2428;48.732;9.148;2022-11-20T08:42:50;5.90;99.90
4828;DHT22;2428;48.732;9.148;2022-11-20T08:45:17;6.00;99.90
4828;DHT22;2428;48.732;9.148;2022-11-20T08:47:43;6.00;99.90
4828;DHT22;2428;48.732;9.148;2022-11-20T08:50:10;6.00;99.90
4828;DHT22;2428;48.732;9.148;2022-11-20T08:52:36;6.10;99.90
4828;DHT22;2428;48.732;9.148;2022-11-20T08:55:02;6.10;99.90
4828;DHT22;2428;48.732;9.148;2022-11-20T08:57:27;6.10;99.90
4828;DHT22;2428;48.732;9.148;2022-11-20T08:59:53;6.20;99.90
4828;DHT22;2428;48.732;9.148;2022-11-20T09:02:18;6.30;99.90
4828;DHT22;2428;48.732;9.148;2022-11-20T09:04:44;6.30;99.90
4828;DHT22;2428;48.732;9.148;2022-11-20T09:07:09;6.30;99.90
4828;DHT22;2428;48.732;9.148;2022-11-20T09:09:35;6.30;99.90
4828;DHT22;2428;48.732;9.148;2022-11-20T09:12:00;6.40;99.90
4828;DHT22;2428;48.732;9.148;2022-11-20T09:14:26;6.40;99.90
4828;DHT22;2428;48.732;9.148;2022-11-20T09:16:55;6.40;99.90
4828;DHT22;2428;48.732;9.148;2022-11-20T09:19:20;6.40;99.90
4828;DHT22;2428;48.732;9.148;2022-11-20T09:21:46;6.40;99.90
4828;DHT22;2428;48.732;9.148;2022-11-20T09:24:12;6.40;99.90
4828;DHT22;2428;48.732;9.148;2022-11-20T09:26:37;6.40;99.90
4828;DHT22;2428;48.732;9.148;2022-11-20T09:29:03;6.40;99.90
4828;DHT22;2428;48.732;9.148;2022-11-20T09:31:28;6.40;99.90
4828;DHT22;2428;48.732;9.148;2022-11-20T09:33:54;6.40;99.90
4828;DHT22;2428;48.732;9.148;2022-11-20T09:36:20;6.40;99.90
4828;DHT22;2428;48.732;9.148;2022-11-20T09:38:46;6.40;99.90
4828;DHT22;2428;48.732;9.148;2022-11-20T09:46:55;6.40;99.90
4828;DHT22;2428;48.732;9.148;2022-11-20T09:49:32;6.30;99.90
4828;DHT22;2428;48.732;9.148;2022-11-20T09:52:12;6.30;99.90
4828;DHT22;2428;48.732;9.148;2022-11-20T09:54:43;6.30;99.90
4828;DHT22;2428;48.732;9.148;2022-11-20T09:57:15;6.30;99.90
4828;DHT22;2428;48.732;9.148;2022-11-20T09:59:44;6.40;99.90
4828;DHT22;2428;48.732;9.148;2022-11-20T10:07:24;6.40;99.90
4828;DHT22;2428;48.732;9.148;2022-11-20T10:09:55;6.40;99.90
4828;DHT22;2428;48.732;9.148;2022-11-20T10:18:54;6.20;99.90
4828;DHT22;2428;48.732;9.148;2022-11-20T10:27:17;6.20;99.90
4828;DHT22;2428;48.732;9.148;2022-11-20T10:29:45;6.20;99.90
4828;DHT22;2428;48.732;9.148;2022-11-20T10:32:20;6.10;99.90
4828;DHT22;2428;48.732;9.148;2022-11-20T10:34:59;6.00;99.90
4828;DHT22;2428;48.732;9.148;2022-11-20T10:37:26;6.10;99.90
4828;DHT22;2428;48.732;9.148;2022-11-20T10:42:57;6.10;99.90
4828;DHT22;2428;48.732;9.148;2022-11-20T10:47:56;6.00;99.90
4828;DHT22;2428;48.732;9.148;2022-11-20T10:50:30;6.00;99.90
4828;DHT22;2428;48.732;9.148;2022-11-20T10:56:17;6.10;99.90
4828;DHT22;2428;48.732;9.148;2022-11-20T11:01:19;6.20;99.90
4828;DHT22;2428;48.732;9.148;2022-11-20T11:03:49;6.20;99.90
4828;DHT22;2428;48.732;9.148;2022-11-20T11:06:42;6.20;99.90
4828;DHT22;2428;48.732;9.148;2022-11-20T11:09:13;6.10;99.90
4828;DHT22;2428;48.732;9.148;2022-11-20T11:11:41;6.20;99.90
4828;DHT22;2428;48.732;9.148;2022-11-20T11:14:08;6.30;99.90
4828;DHT22;2428;48.732;9.148;2022-11-20T11:16:34;6.20;99.90
4828;DHT22;2428;48.732;9.148;2022-11-20T11:19:13;6.20;99.90
4828;DHT22;2428;48.732;9.148;2022-11-20T11:21:38;6.30;99.90
4828;DHT22;2428;48.732;9.148;2022-11-20T11:24:29;6.30;99.90
4828;DHT22;2428;48.732;9.148;2022-11-20T11:27:12;6.30;99.90
4828;DHT22;2428;48.732;9.148;2022-11-20T11:29:37;6.40;99.90
4828;DHT22;2428;48.732;9.148;2022-11-20T11:32:20;6.50;99.90
4828;DHT22;2428;48.732;9.148;2022-11-20T11:35:04;6.60;99.90
4828;DHT22;2428;48.732;9.148;2022-11-20T11:37:36;6.50;99.90
4828;DHT22;2428;48.732;9.148;2022-11-20T11:40:04;6.60;99.90
4828;DHT22;2428;48.732;9.148;2022-11-20T11:42:31;6.70;99.90
4828;DHT22;2428;48.732;9.148;2022-11-20T11:44:59;6.80;99.90
4828;DHT22;2428;48.732;9.148;2022-11-20T11:52:29;7.10;99.90
4828;DHT22;2428;48.732;9.148;2022-11-20T11:54:59;7.10;99.90
4828;DHT22;2428;48.732;9.148;2022-11-20T12:00:17;7.30;99.90
4828;DHT22;2428;48.732;9.148;2022-11-20T12:05:29;7.50;99.90
4828;DHT22;2428;48.732;9.148;2022-11-20T12:08:04;7.50;99.90
4828;DHT22;2428;48.732;9.148;2022-11-20T12:15:51;7.70;99.90
4828;DHT22;2428;48.732;9.148;2022-11-20T12:18:20;7.70;99.90
4828;DHT22;2428;48.732;9.148;2022-11-20T12:39:22;7.50;99.90
4828;DHT22;2428;48.732;9.148;2022-11-20T12:45:07;7.50;99.90
4828;DHT22;2428;48.732;9.148;2022-11-20T12:53:33;7.50;99.90
4828;DHT22;2428;48.732;9.148;2022-11-20T12:59:17;7.50;99.90
4828;DHT22;2428;48.732;9.148;2022-11-20T13:01:51;7.50;99.90
4828;DHT22;2428;48.732;9.148;2022-11-20T13:07:07;7.40;99.90
4828;DHT22;2428;48.732;9.148;2022-11-20T13:09:40;7.50;99.90
4828;DHT22;2428;48.732;9.148;2022-11-20T13:20:06;7.80;99.90
4828;DHT22;2428;48.732;9.148;2022-11-20T13:22:49;7.80;99.90
4828;DHT22;2428;48.732;9.148;2022-11-20T13:25:27;7.80;99.90
4828;DHT22;2428;48.732;9.148;2022-11-20T13:27:54;7.80;99.90
4828;DHT22;2428;48.732;9.148;2022-11-20T13:30:24;7.70;99.90
4828;DHT22;2428;48.732;9.148;2022-11-20T13:32:57;7.60;99.90
4828;DHT22;2428;48.732;9.148;2022-11-20T13:35:29;7.60;99.90
4828;DHT22;2428;48.732;9.148;2022-11-20T13:38:13;7.60;99.90
4828;DHT22;2428;48.732;9.148;2022-11-20T13:40:55;7.60;99.90
4828;DHT22;2428;48.732;9.148;2022-11-20T13:43:35;7.70;99.90
4828;DHT22;2428;48.732;9.148;2022-11-20T13:46:06;7.60;99.90
4828;DHT22;2428;48.732;9.148;2022-11-20T13:48:44;7.60;99.90
4828;DHT22;2428;48.732;9.148;2022-11-20T13:54:29;7.80;99.90
4828;DHT22;2428;48.732;9.148;2022-11-20T14:02:44;7.70;99.90
4828;DHT22;2428;48.732;9.148;2022-11-20T14:05:21;7.70;99.90
4828;DHT22;2428;48.732;9.148;2022-11-20T14:07:48;7.70;99.90
4828;DHT22;2428;48.732;9.148;2022-11-20T14:10:28;7.60;99.90
4828;DHT22;2428;48.732;9.148;2022-11-20T14:12:54;7.60;99.90
4828;DHT22;2428;48.732;9.148;2022-11-20T14:17:52;7.40;99.90
4828;DHT22;2428;48.732;9.148;2022-11-20T14:20:18;7.40;99.90
4828;DHT22;2428;48.732;9.148;2022-11-20T14:22:51;7.30;99.90
4828;DHT22;2428;48.732;9.148;2022-11-20T14:27:44;7.20;99.90
4828;DHT22;2428;48.732;9.148;2022-11-20T14:30:58;7.10;99.90
4828;DHT22;2428;48.732;9.148;2022-11-20T14:33:05;7.00;99.90
4828;DHT22;2428;48.732;9.148;2022-11-20T14:35:35;7.00;99.90
4828;DHT22;2428;48.732;9.148;2022-11-20T14:38:02;7.00;99.90
4828;DHT22;2428;48.732;9.148;2022-11-20T14:42:57;7.10;99.90
4828;DHT22;2428;48.732;9.148;2022-11-20T14:45:23;7.00;99.90
4828;DHT22;2428;48.732;9.148;2022-11-20T14:47:51;7.00;99.90
4828;DHT22;2428;48.732;9.148;2022-11-20T14:50:23;7.00;99.90
4828;DHT22;2428;48.732;9.148;2022-11-20T14:53:07;7.00;99.90
4828;DHT22;2428;48.732;9.148;2022-11-20T14:55:38;7.00;99.90
4828;DHT22;2428;48.732;9.148;2022-11-20T14:58:21;7.00;99.90
4828;DHT22;2428;48.732;9.148;2022-11-20T15:01:01;7.10;99.90
4828;DHT22;2428;48.732;9.148;2022-11-20T15:03:35;7.10;99.90
4828;DHT22;2428;48.732;9.148;2022-11-20T15:06:01;7.20;99.90
4828;DHT22;2428;48.732;9.148;2022-11-20T15:08:27;7.20;99.90
4828;DHT22;2428;48.732;9.148;2022-11-20T15:10:56;7.10;99.90
4828;DHT22;2428;48.732;9.148;2022-11-20T15:13:38;7.00;99.90
4828;DHT22;2428;48.732;9.148;2022-11-20T15:16:21;6.90;99.90
4828;DHT22;2428;48.732;9.148;2022-11-20T15:18:48;6.90;99.90
4828;DHT22;2428;48.732;9.148;2022-11-20T15:21:15;6.80;99.90
4828;DHT22;2428;48.732;9.148;2022-11-20T15:23:42;6.80;99.90
4828;DHT22;2428;48.732;9.148;2022-11-20T15:26:10;6.80;99.90
4828;DHT22;2428;48.732;9.148;2022-11-20T15:28:40;6.70;99.90
4828;DHT22;2428;48.732;9.148;2022-11-20T15:31:06;6.70;99.90
4828;DHT22;2428;48.732;9.148;2022-11-20T15:33:33;6.70;99.90
4828;DHT22;2428;48.732;9.148;2022-11-20T15:35:59;6.60;99.90
4828;DHT22;2428;48.732;9.148;2022-11-20T15:38:25;6.60;99.90
4828;DHT22;2428;48.732;9.148;2022-11-20T15:40:51;6.60;99.90
4828;DHT22;2428;48.732;9.148;2022-11-20T15:43:16;6.60;99.90
4828;DHT22;2428;48.732;9.148;2022-11-20T15:48:54;6.60;99.90
4828;DHT22;2428;48.732;9.148;2022-11-20T15:51:31;6.50;99.90
4828;DHT22;2428;48.732;9.148;2022-11-20T15:53:59;6.50;99.90
4828;DHT22;2428;48.732;9.148;2022-11-20T15:56:25;6.50;99.90
4828;DHT22;2428;48.732;9.148;2022-11-20T15:58:51;6.50;99.90
4828;DHT22;2428;48.732;9.148;2022-11-20T16:01:19;6.50;99.90
4828;DHT22;2428;48.732;9.148;2022-11-20T16:03:46;6.50;99.90
4828;DHT22;2428;48.732;9.148;2022-11-20T16:06:11;6.50;99.90
4828;DHT22;2428;48.732;9.148;2022-11-20T16:08:37;6.30;99.90
4828;DHT22;2428;48.732;9.148;2022-11-20T16:11:03;6.30;99.90
4828;DHT22;2428;48.732;9.148;2022-11-20T16:13:31;6.30;99.90
4828;DHT22;2428;48.732;9.148;2022-11-20T16:16:24;6.30;99.90
4828;DHT22;2428;48.732;9.148;2022-11-20T16:18:53;6.30;99.90
4828;DHT22;2428;48.732;9.148;2022-11-20T16:21:18;6.30;99.90
4828;DHT22;2428;48.732;9.148;2022-11-20T16:23:44;6.30;99.90
4828;DHT22;2428;48.732;9.148;2022-11-20T16:26:17;6.30;99.90
4828;DHT22;2428;48.732;9.148;2022-11-20T16:28:44;6.30;99.90
4828;DHT22;2428;48.732;9.148;2022-11-20T16:31:14;6.40;99.90
4828;DHT22;2428;48.732;9.148;2022-11-20T16:33:41;6.30;99.90
4828;DHT22;2428;48.732;9.148;2022-11-20T16:36:11;6.30;99.90
4828;DHT22;2428;48.732;9.148;2022-11-20T16:38:37;6.30;99.90
4828;DHT22;2428;48.732;9.148;2022-11-20T16:41:03;6.40;99.90
4828;DHT22;2428;48.732;9.148;2022-11-20T16:43:29;6.40;99.90
4828;DHT22;2428;48.732;9.148;2022-11-20T16:45:54;6.40;99.90
4828;DHT22;2428;48.732;9.148;2022-11-20T16:48:20;6.40;99.90
4828;DHT22;2428;48.732;9.148;2022-11-20T16:53:12;6.40;99.90
4828;DHT22;2428;48.732;9.148;2022-11-20T16:55:38;6.40;99.90
4828;DHT22;2428;48.732;9.148;2022-11-20T16:58:03;6.40;99.90
4828;DHT22;2428;48.732;9.148;2022-11-20T17:00:29;6.40;99.90
4828;DHT22;2428;48.732;9.148;2022-11-20T17:02:54;6.30;99.90
4828;DHT22;2428;48.732;9.148;2022-11-20T17:05:20;6.40;99.90
4828;DHT22;2428;48.732;9.148;2022-11-20T17:07:45;6.40;99.90
4828;DHT22;2428;48.732;9.148;2022-11-20T17:10:11;6.30;99.90
4828;DHT22;2428;48.732;9.148;2022-11-20T17:12:36;6.30;99.90
4828;DHT22;2428;48.732;9.148;2022-11-20T17:15:02;6.30;99.90
4828;DHT22;2428;48.732;9.148;2022-11-20T17:17:28;6.30;99.90
4828;DHT22;2428;48.732;9.148;2022-11-20T17:19:53;6.30;99.90
4828;DHT22;2428;48.732;9.148;2022-11-20T17:22:19;6.30;99.90
4828;DHT22;2428;48.732;9.148;2022-11-20T17:24:44;6.30;99.90
4828;DHT22;2428;48.732;9.148;2022-11-20T17:27:10;6.30;99.90
4828;DHT22;2428;48.732;9.148;2022-11-20T17:29:36;6.20;99.90
4828;DHT22;2428;48.732;9.148;2022-11-20T17:32:01;6.20;99.90
4828;DHT22;2428;48.732;9.148;2022-11-20T17:34:27;6.20;99.90
4828;DHT22;2428;48.732;9.148;2022-11-20T17:36:52;6.20;99.90
4828;DHT22;2428;48.732;9.148;2022-11-20T17:39:19;6.20;99.90
4828;DHT22;2428;48.732;9.148;2022-11-20T17:41:45;6.30;99.90
4828;DHT22;2428;48.732;9.148;2022-11-20T17:44:30;6.30;99.90
4828;DHT22;2428;48.732;9.148;2022-11-20T17:46:56;6.30;99.90
4828;DHT22;2428;48.732;9.148;2022-11-20T17:49:21;6.30;99.90
4828;DHT22;2428;48.732;9.148;2022-11-20T17:51:47;6.30;99.90
4828;DHT22;2428;48.732;9.148;2022-11-20T17:54:12;6.30;99.90
4828;DHT22;2428;48.732;9.148;2022-11-20T17:56:38;6.30;99.90
4828;DHT22;2428;48.732;9.148;2022-11-20T17:59:22;6.30;99.90
4828;DHT22;2428;48.732;9.148;2022-11-20T18:01:48;6.30;99.90
4828;DHT22;2428;48.732;9.148;2022-11-20T18:04:13;6.30;99.90
4828;DHT22;2428;48.732;9.148;2022-11-20T18:06:39;6.30;99.90
4828;DHT22;2428;48.732;9.148;2022-11-20T18:09:06;6.30;99.90
4828;DHT22;2428;48.732;9.148;2022-11-20T18:11:35;6.30;99.90
4828;DHT22;2428;48.732;9.148;2022-11-20T18:14:03;6.30;99.90
4828;DHT22;2428;48.732;9.148;2022-11-20T18:16:48;6.30;99.90
4828;DHT22;2428;48.732;9.148;2022-11-20T18:19:17;6.30;99.90
4828;DHT22;2428;48.732;9.148;2022-11-20T18:21:43;6.30;99.90
4828;DHT22;2428;48.732;9.148;2022-11-20T18:24:09;6.40;99.90
4828;DHT22;2428;48.732;9.148;2022-11-20T18:26:35;6.40;99.90
4828;DHT22;2428;48.732;9.148;2022-11-20T18:29:01;6.40;99.90